sensor_id;sensor_type;location;lat;lon;timestamp;temperature;humidity
19813;DHT22;10066;48.108;11.448;2023-06-24T00:00:41;17.00;99.90
19813;DHT22;10066;48.108;11.448;2023-06-24T00:03:08;17.10;99.90
19813;DHT22;10066;48.108;11.448;2023-06-24T00:05:36;17.10;99.90
19813;DHT22;10066;48.108;11.448;2023-06-24T00:08:04;17.10;99.90
19813;DHT22;10066;48.108;11.448;2023-06-24T00:10:32;17.10;99.90
19813;DHT22;10066;48.108;11.448;2023-06-24T00:12:59;17.10;99.90
19813;DHT22;10066;48.108;11.448;2023-06-24T00:15:27;17.10;99.90
19813;DHT22;10066;48.108;11.448;2023-06-24T00:17:54;17.10;99.90
19813;DHT22;10066;48.108;11.448;2023-06-24T00:20:31;17.10;99.90
19813;DHT22;10066;48.108;11.448;2023-06-24T00:22:59;17.20;99.90
19813;DHT22;10066;48.108;11.448;2023-06-24T00:25:26;17.20;99.90
19813;DHT22;10066;48.108;11.448;2023-06-24T00:27:53;17.20;99.90
19813;DHT22;10066;48.108;11.448;2023-06-24T00:30:20;17.20;99.90
19813;DHT22;10066;48.108;11.448;2023-06-24T00:32:47;17.20;99.90
19813;DHT22;10066;48.108;11.448;2023-06-24T00:35:14;17.20;99.90
19813;DHT22;10066;48.108;11.448;2023-06-24T00:37:41;17.20;99.90
19813;DHT22;10066;48.108;11.448;2023-06-24T00:40:12;17.20;99.90
19813;DHT22;10066;48.108;11.448;2023-06-24T00:42:41;17.20;99.90
19813;DHT22;10066;48.108;11.448;2023-06-24T00:45:09;17.20;99.90
19813;DHT22;10066;48.108;11.448;2023-06-24T00:47:36;17.10;99.90
19813;DHT22;10066;48.108;11.448;2023-06-24T00:50:04;17.10;99.90
19813;DHT22;10066;48.108;11.448;2023-06-24T00:52:31;17.10;99.90
19813;DHT22;10066;48.108;11.448;2023-06-24T00:54:58;17.10;99.90
19813;DHT22;10066;48.108;11.448;2023-06-24T00:57:26;17.10;99.90
19813;DHT22;10066;48.108;11.448;2023-06-24T00:59:54;17.10;99.90
19813;DHT22;10066;48.108;11.448;2023-06-24T01:02:22;17.10;99.90
19813;DHT22;10066;48.108;11.448;2023-06-24T01:04:53;17.10;99.90
19813;DHT22;10066;48.108;11.448;2023-06-24T01:07:21;17.10;99.90
19813;DHT22;10066;48.108;11.448;2023-06-24T01:09:48;17.10;99.90
19813;DHT22;10066;48.108;11.448;2023-06-24T01:12:15;17.00;99.90
19813;DHT22;10066;48.108;11.448;2023-06-24T01:14:43;17.00;99.90
19813;DHT22;10066;48.108;11.448;2023-06-24T01:17:14;17.00;99.90
19813;DHT22;10066;48.108;11.448;2023-06-24T01:19:54;17.00;99.90
19813;DHT22;10066;48.108;11.448;2023-06-24T01:22:43;17.00;99.90
19813;DHT22;10066;48.108;11.448;2023-06-24T01:25:29;16.90;99.90
19813;DHT22;10066;48.108;11.448;2023-06-24T01:28:19;16.90;99.90
19813;DHT22;10066;48.108;11.448;2023-06-24T01:31:30;16.90;99.90
19813;DHT22;10066;48.108;11.448;2023-06-24T01:34:01;16.90;99.90
19813;DHT22;10066;48.108;11.448;2023-06-24T01:36:34;16.90;99.90
19813;DHT22;10066;48.108;11.448;2023-06-24T01:39:05;16.90;99.90
19813;DHT22;10066;48.108;11.448;2023-06-24T01:41:40;16.90;99.90
19813;DHT22;10066;48.108;11.448;2023-06-24T01:44:08;16.90;99.90
19813;DHT22;10066;48.108;11.448;2023-06-24T01:46:37;16.90;99.90
19813;DHT22;10066;48.108;11.448;2023-06-24T01:49:07;16.90;99.90
19813;DHT22;10066;48.108;11.448;2023-06-24T01:51:37;16.90;99.90
19813;DHT22;10066;48.108;11.448;2023-06-24T01:54:10;16.90;99.90
19813;DHT22;10066;48.108;11.448;2023-06-24T01:56:39;16.90;99.90
19813;DHT22;10066;48.108;11.448;2023-06-24T01:59:09;16.90;99.90
19813;DHT22;10066;48.108;11.448;2023-06-24T02:01:38;16.90;99.90
19813;DHT22;10066;48.108;11.448;2023-06-24T02:04:08;16.90;99.90
19813;DHT22;10066;48.108;11.448;2023-06-24T02:06:36;16.90;99.90
19813;DHT22;10066;48.108;11.448;2023-06-24T02:09:05;16.80;99.90
19813;DHT22;10066;48.108;11.448;2023-06-24T02:11:33;16.80;99.90
19813;DHT22;10066;48.108;11.448;2023-06-24T02:14:03;16.80;99.90
19813;DHT22;10066;48.108;11.448;2023-06-24T02:16:32;16.80;99.90
19813;DHT22;10066;48.108;11.448;2023-06-24T02:19:02;16.80;99.90
19813;DHT22;10066;48.108;11.448;2023-06-24T02:21:31;16.80;99.90
19813;DHT22;10066;48.108;11.448;2023-06-24T02:23:58;16.80;99.90
19813;DHT22;10066;48.108;11.448;2023-06-24T02:26:26;16.70;99.90
19813;DHT22;10066;48.108;11.448;2023-06-24T02:28:53;16.70;99.90
19813;DHT22;10066;48.108;11.448;2023-06-24T02:31:21;16.60;99.90
19813;DHT22;10066;48.108;11.448;2023-06-24T02:33:48;16.60;99.90
19813;DHT22;10066;48.108;11.448;2023-06-24T02:36:16;16.50;99.90
19813;DHT22;10066;48.108;11.448;2023-06-24T02:38:44;16.50;99.90
19813;DHT22;10066;48.108;11.448;2023-06-24T02:41:10;16.50;99.90
19813;DHT22;10066;48.108;11.448;2023-06-24T02:43:37;16.50;99.90
19813;DHT22;10066;48.108;11.448;2023-06-24T02:46:06;16.50;99.90
19813;DHT22;10066;48.108;11.448;2023-06-24T02:48:35;16.50;99.90
19813;DHT22;10066;48.108;11.448;2023-06-24T02:51:03;16.50;99.90
19813;DHT22;10066;48.108;11.448;2023-06-24T02:53:33;16.50;99.90
19813;DHT22;10066;48.108;11.448;2023-06-24T02:56:00;16.50;99.90
19813;DHT22;10066;48.108;11.448;2023-06-24T02:58:30;16.50;99.90
19813;DHT22;10066;48.108;11.448;2023-06-24T03:00:58;16.40;99.90
19813;DHT22;10066;48.108;11.448;2023-06-24T03:03:26;16.40;99.90
19813;DHT22;10066;48.108;11.448;2023-06-24T03:05:54;16.40;99.90
19813;DHT22;10066;48.108;11.448;2023-06-24T03:08:23;16.40;99.90
19813;DHT22;10066;48.108;11.448;2023-06-24T03:10:54;16.40;99.90
19813;DHT22;10066;48.108;11.448;2023-06-24T03:13:21;16.40;99.90
19813;DHT22;10066;48.108;11.448;2023-06-24T03:15:48;16.40;99.90
19813;DHT22;10066;48.108;11.448;2023-06-24T03:18:16;16.40;99.90
19813;DHT22;10066;48.108;11.448;2023-06-24T03:20:43;16.40;99.90
19813;DHT22;10066;48.108;11.448;2023-06-24T03:23:11;16.40;99.90
19813;DHT22;10066;48.108;11.448;2023-06-24T03:25:38;16.40;99.90
19813;DHT22;10066;48.108;11.448;2023-06-24T03:28:06;16.40;99.90
19813;DHT22;10066;48.108;11.448;2023-06-24T03:30:33;16.40;99.90
19813;DHT22;10066;48.108;11.448;2023-06-24T03:33:00;16.40;99.90
19813;DHT22;10066;48.108;11.448;2023-06-24T03:35:28;16.40;99.90
19813;DHT22;10066;48.108;11.448;2023-06-24T03:37:55;16.40;99.90
19813;DHT22;10066;48.108;11.448;2023-06-24T03:40:22;16.40;99.90
19813;DHT22;10066;48.108;11.448;2023-06-24T03:42:48;16.40;99.90
19813;DHT22;10066;48.108;11.448;2023-06-24T03:45:17;16.40;99.90
19813;DHT22;10066;48.108;11.448;2023-06-24T03:47:44;16.40;99.90
19813;DHT22;10066;48.108;11.448;2023-06-24T03:50:10;16.50;99.90
19813;DHT22;10066;48.108;11.448;2023-06-24T03:52:37;16.50;99.90
19813;DHT22;10066;48.108;11.448;2023-06-24T03:55:05;16.50;99.90
19813;DHT22;10066;48.108;11.448;2023-06-24T03:57:31;16.50;99.90
19813;DHT22;10066;48.108;11.448;2023-06-24T03:59:58;16.50;99.90
19813;DHT22;10066;48.108;11.448;2023-06-24T04:02:27;16.60;99.90
19813;DHT22;10066;48.108;11.448;2023-06-24T04:04:54;16.60;99.90
19813;DHT22;10066;48.108;11.448;2023-06-24T04:07:22;16.60;99.90
19813;DHT22;10066;48.108;11.448;2023-06-24T04:09:54;16.60;99.90
19813;DHT22;10066;48.108;11.448;2023-06-24T04:12:21;16.70;99.90
19813;DHT22;10066;48.108;11.448;2023-06-24T04:14:49;16.70;99.90
19813;DHT22;10066;48.108;11.448;2023-06-24T04:17:16;16.70;99.90
19813;DHT22;10066;48.108;11.448;2023-06-24T04:19:44;16.80;99.90
19813;DHT22;10066;48.108;11.448;2023-06-24T04:22:11;16.80;99.90
19813;DHT22;10066;48.108;11.448;2023-06-24T04:24:38;16.90;99.90
19813;DHT22;10066;48.108;11.448;2023-06-24T04:27:07;16.90;99.90
19813;DHT22;10066;48.108;11.448;2023-06-24T04:29:34;17.00;99.90
19813;DHT22;10066;48.108;11.448;2023-06-24T04:32:01;17.00;99.90
19813;DHT22;10066;48.108;11.448;2023-06-24T04:34:28;17.10;99.90
19813;DHT22;10066;48.108;11.448;2023-06-24T04:36:56;17.10;99.90
19813;DHT22;10066;48.108;11.448;2023-06-24T04:39:23;17.10;99.90
19813;DHT22;10066;48.108;11.448;2023-06-24T04:41:50;17.10;99.90
19813;DHT22;10066;48.108;11.448;2023-06-24T04:44:17;17.20;99.90
19813;DHT22;10066;48.108;11.448;2023-06-24T04:46:45;17.20;99.90
19813;DHT22;10066;48.108;11.448;2023-06-24T04:49:12;17.20;99.90
19813;DHT22;10066;48.108;11.448;2023-06-24T04:51:39;17.30;99.90
19813;DHT22;10066;48.108;11.448;2023-06-24T04:54:10;17.30;99.90
19813;DHT22;10066;48.108;11.448;2023-06-24T04:56:38;17.40;99.90
19813;DHT22;10066;48.108;11.448;2023-06-24T04:59:04;17.40;99.90
19813;DHT22;10066;48.108;11.448;2023-06-24T05:01:31;17.50;99.90
19813;DHT22;10066;48.108;11.448;2023-06-24T05:03:58;17.60;99.90
19813;DHT22;10066;48.108;11.448;2023-06-24T05:06:25;17.70;99.90
19813;DHT22;10066;48.108;11.448;2023-06-24T05:08:52;17.70;99.90
19813;DHT22;10066;48.108;11.448;2023-06-24T05:11:21;17.80;99.90
19813;DHT22;10066;48.108;11.448;2023-06-24T05:13:48;17.80;99.90
19813;DHT22;10066;48.108;11.448;2023-06-24T05:16:14;17.90;99.90
19813;DHT22;10066;48.108;11.448;2023-06-24T05:18:43;18.00;99.90
19813;DHT22;10066;48.108;11.448;2023-06-24T05:21:10;18.10;99.90
19813;DHT22;10066;48.108;11.448;2023-06-24T05:23:37;18.10;99.90
19813;DHT22;10066;48.108;11.448;2023-06-24T05:26:04;18.20;99.90
19813;DHT22;10066;48.108;11.448;2023-06-24T05:28:32;18.30;99.90
19813;DHT22;10066;48.108;11.448;2023-06-24T05:30:59;18.40;99.90
19813;DHT22;10066;48.108;11.448;2023-06-24T05:33:26;18.50;99.90
19813;DHT22;10066;48.108;11.448;2023-06-24T05:35:53;18.60;99.90
19813;DHT22;10066;48.108;11.448;2023-06-24T05:38:20;18.80;99.90
19813;DHT22;10066;48.108;11.448;2023-06-24T05:40:47;18.90;99.90
19813;DHT22;10066;48.108;11.448;2023-06-24T05:43:14;19.10;99.90
19813;DHT22;10066;48.108;11.448;2023-06-24T05:45:42;19.30;99.90
19813;DHT22;10066;48.108;11.448;2023-06-24T05:48:10;19.50;99.90
19813;DHT22;10066;48.108;11.448;2023-06-24T05:50:36;19.70;99.90
19813;DHT22;10066;48.108;11.448;2023-06-24T05:53:03;19.90;99.90
19813;DHT22;10066;48.108;11.448;2023-06-24T05:55:30;20.10;99.90
19813;DHT22;10066;48.108;11.448;2023-06-24T05:57:57;20.20;99.90
19813;DHT22;10066;48.108;11.448;2023-06-24T06:00:24;20.40;99.90
19813;DHT22;10066;48.108;11.448;2023-06-24T06:02:52;20.60;99.90
19813;DHT22;10066;48.108;11.448;2023-06-24T06:05:19;20.80;99.90
19813;DHT22;10066;48.108;11.448;2023-06-24T06:07:46;21.00;99.90
19813;DHT22;10066;48.108;11.448;2023-06-24T06:10:14;21.10;99.90
19813;DHT22;10066;48.108;11.448;2023-06-24T06:12:42;21.20;99.90
19813;DHT22;10066;48.108;11.448;2023-06-24T06:15:10;21.20;99.90
19813;DHT22;10066;48.108;11.448;2023-06-24T06:17:37;21.30;99.90
19813;DHT22;10066;48.108;11.448;2023-06-24T06:20:07;21.40;99.90
19813;DHT22;10066;48.108;11.448;2023-06-24T06:22:33;21.50;99.90
19813;DHT22;10066;48.108;11.448;2023-06-24T06:25:03;21.60;99.90
19813;DHT22;10066;48.108;11.448;2023-06-24T06:27:30;21.60;99.90
19813;DHT22;10066;48.108;11.448;2023-06-24T06:29:57;21.60;99.90
19813;DHT22;10066;48.108;11.448;2023-06-24T06:32:24;21.50;99.90
19813;DHT22;10066;48.108;11.448;2023-06-24T06:34:51;21.60;99.90
19813;DHT22;10066;48.108;11.448;2023-06-24T06:37:19;21.60;99.90
19813;DHT22;10066;48.108;11.448;2023-06-24T06:39:46;21.70;99.90
19813;DHT22;10066;48.108;11.448;2023-06-24T06:42:13;21.80;99.90
19813;DHT22;10066;48.108;11.448;2023-06-24T06:44:41;21.80;99.90
19813;DHT22;10066;48.108;11.448;2023-06-24T06:47:08;21.90;99.90
19813;DHT22;10066;48.108;11.448;2023-06-24T06:49:35;21.90;99.90
19813;DHT22;10066;48.108;11.448;2023-06-24T06:52:02;21.90;99.90
19813;DHT22;10066;48.108;11.448;2023-06-24T06:54:30;21.90;99.90
19813;DHT22;10066;48.108;11.448;2023-06-24T06:57:00;22.00;99.90
19813;DHT22;10066;48.108;11.448;2023-06-24T06:59:27;22.30;99.90
19813;DHT22;10066;48.108;11.448;2023-06-24T07:01:54;22.40;99.90
19813;DHT22;10066;48.108;11.448;2023-06-24T07:04:22;22.40;99.90
19813;DHT22;10066;48.108;11.448;2023-06-24T07:06:49;22.50;99.90
19813;DHT22;10066;48.108;11.448;2023-06-24T07:09:16;22.60;99.70
19813;DHT22;10066;48.108;11.448;2023-06-24T07:11:44;22.50;98.90
19813;DHT22;10066;48.108;11.448;2023-06-24T07:14:11;22.50;99.30
19813;DHT22;10066;48.108;11.448;2023-06-24T07:16:38;22.60;99.10
19813;DHT22;10066;48.108;11.448;2023-06-24T07:19:05;22.60;98.60
19813;DHT22;10066;48.108;11.448;2023-06-24T07:21:32;22.50;97.50
19813;DHT22;10066;48.108;11.448;2023-06-24T07:23:59;22.50;97.50
19813;DHT22;10066;48.108;11.448;2023-06-24T07:26:26;22.60;97.80
19813;DHT22;10066;48.108;11.448;2023-06-24T07:28:58;22.70;97.80
19813;DHT22;10066;48.108;11.448;2023-06-24T07:31:25;22.90;97.50
19813;DHT22;10066;48.108;11.448;2023-06-24T07:33:52;23.10;97.80
19813;DHT22;10066;48.108;11.448;2023-06-24T07:36:19;23.30;97.50
19813;DHT22;10066;48.108;11.448;2023-06-24T07:38:46;23.40;96.60
19813;DHT22;10066;48.108;11.448;2023-06-24T07:41:13;23.50;96.10
19813;DHT22;10066;48.108;11.448;2023-06-24T07:43:40;23.60;95.50
19813;DHT22;10066;48.108;11.448;2023-06-24T07:46:09;23.60;95.00
19813;DHT22;10066;48.108;11.448;2023-06-24T07:48:36;23.60;93.80
19813;DHT22;10066;48.108;11.448;2023-06-24T07:51:03;23.50;93.90
19813;DHT22;10066;48.108;11.448;2023-06-24T07:53:30;23.50;93.90
19813;DHT22;10066;48.108;11.448;2023-06-24T07:55:59;23.60;93.70
19813;DHT22;10066;48.108;11.448;2023-06-24T07:58:26;23.60;93.80
19813;DHT22;10066;48.108;11.448;2023-06-24T08:00:53;23.80;93.40
19813;DHT22;10066;48.108;11.448;2023-06-24T08:03:21;23.90;93.20
19813;DHT22;10066;48.108;11.448;2023-06-24T08:05:48;23.90;93.00
19813;DHT22;10066;48.108;11.448;2023-06-24T08:08:15;23.90;92.80
19813;DHT22;10066;48.108;11.448;2023-06-24T08:10:56;24.00;93.10
19813;DHT22;10066;48.108;11.448;2023-06-24T08:13:22;24.00;92.40
19813;DHT22;10066;48.108;11.448;2023-06-24T08:15:49;24.00;91.90
19813;DHT22;10066;48.108;11.448;2023-06-24T08:18:16;24.10;91.70
19813;DHT22;10066;48.108;11.448;2023-06-24T08:20:44;24.00;91.50
19813;DHT22;10066;48.108;11.448;2023-06-24T08:23:11;24.10;91.50
19813;DHT22;10066;48.108;11.448;2023-06-24T08:25:38;24.10;91.30
19813;DHT22;10066;48.108;11.448;2023-06-24T08:28:05;24.10;91.20
19813;DHT22;10066;48.108;11.448;2023-06-24T08:30:32;24.10;91.20
19813;DHT22;10066;48.108;11.448;2023-06-24T08:32:59;24.20;91.20
19813;DHT22;10066;48.108;11.448;2023-06-24T08:35:26;24.30;91.00
19813;DHT22;10066;48.108;11.448;2023-06-24T08:37:54;24.30;90.90
19813;DHT22;10066;48.108;11.448;2023-06-24T08:40:21;24.30;90.50
19813;DHT22;10066;48.108;11.448;2023-06-24T08:42:48;24.10;90.30
19813;DHT22;10066;48.108;11.448;2023-06-24T08:45:15;24.10;90.10
19813;DHT22;10066;48.108;11.448;2023-06-24T08:47:43;24.00;90.30
19813;DHT22;10066;48.108;11.448;2023-06-24T08:50:12;23.90;90.40
19813;DHT22;10066;48.108;11.448;2023-06-24T08:52:42;23.90;89.80
19813;DHT22;10066;48.108;11.448;2023-06-24T08:55:13;23.70;88.60
19813;DHT22;10066;48.108;11.448;2023-06-24T08:57:43;23.60;88.50
19813;DHT22;10066;48.108;11.448;2023-06-24T09:00:11;23.50;88.10
19813;DHT22;10066;48.108;11.448;2023-06-24T09:02:38;23.20;88.60
19813;DHT22;10066;48.108;11.448;2023-06-24T09:05:06;23.10;88.90
19813;DHT22;10066;48.108;11.448;2023-06-24T09:07:33;22.90;88.50
19813;DHT22;10066;48.108;11.448;2023-06-24T09:10:00;22.70;89.30
19813;DHT22;10066;48.108;11.448;2023-06-24T09:12:31;22.40;89.50
19813;DHT22;10066;48.108;11.448;2023-06-24T09:14:58;22.30;90.50
19813;DHT22;10066;48.108;11.448;2023-06-24T09:17:25;22.40;91.60
19813;DHT22;10066;48.108;11.448;2023-06-24T09:19:54;22.60;91.80
19813;DHT22;10066;48.108;11.448;2023-06-24T09:22:30;22.60;91.10
19813;DHT22;10066;48.108;11.448;2023-06-24T09:25:00;22.50;90.40
19813;DHT22;10066;48.108;11.448;2023-06-24T09:27:31;22.40;90.10
19813;DHT22;10066;48.108;11.448;2023-06-24T09:29:58;22.30;90.80
19813;DHT22;10066;48.108;11.448;2023-06-24T09:32:28;22.40;91.10
19813;DHT22;10066;48.108;11.448;2023-06-24T09:34:55;22.40;90.70
19813;DHT22;10066;48.108;11.448;2023-06-24T09:37:22;22.40;90.80
19813;DHT22;10066;48.108;11.448;2023-06-24T09:39:50;22.40;90.90
19813;DHT22;10066;48.108;11.448;2023-06-24T09:42:21;22.50;91.70
19813;DHT22;10066;48.108;11.448;2023-06-24T09:44:54;22.70;91.70
19813;DHT22;10066;48.108;11.448;2023-06-24T09:47:21;22.90;91.50
19813;DHT22;10066;48.108;11.448;2023-06-24T09:49:51;23.10;91.30
19813;DHT22;10066;48.108;11.448;2023-06-24T09:52:19;23.20;90.70
19813;DHT22;10066;48.108;11.448;2023-06-24T09:54:50;23.10;88.10
19813;DHT22;10066;48.108;11.448;2023-06-24T09:57:18;23.10;88.60
19813;DHT22;10066;48.108;11.448;2023-06-24T09:59:48;23.20;88.40
19813;DHT22;10066;48.108;11.448;2023-06-24T10:02:18;22.90;88.40
19813;DHT22;10066;48.108;11.448;2023-06-24T10:04:45;22.70;88.70
19813;DHT22;10066;48.108;11.448;2023-06-24T10:07:13;22.80;89.10
19813;DHT22;10066;48.108;11.448;2023-06-24T10:09:41;22.90;89.10
19813;DHT22;10066;48.108;11.448;2023-06-24T10:12:09;23.00;88.50
19813;DHT22;10066;48.108;11.448;2023-06-24T10:14:36;23.00;87.50
19813;DHT22;10066;48.108;11.448;2023-06-24T10:17:04;22.90;86.70
19813;DHT22;10066;48.108;11.448;2023-06-24T10:19:38;22.90;87.70
19813;DHT22;10066;48.108;11.448;2023-06-24T10:22:08;22.90;87.50
19813;DHT22;10066;48.108;11.448;2023-06-24T10:24:37;22.80;87.50
19813;DHT22;10066;48.108;11.448;2023-06-24T10:27:09;22.70;88.50
19813;DHT22;10066;48.108;11.448;2023-06-24T10:29:41;22.70;88.70
19813;DHT22;10066;48.108;11.448;2023-06-24T10:32:10;22.60;88.10
19813;DHT22;10066;48.108;11.448;2023-06-24T10:34:43;22.60;88.40
19813;DHT22;10066;48.108;11.448;2023-06-24T10:37:12;22.70;90.00
19813;DHT22;10066;48.108;11.448;2023-06-24T10:39:50;22.80;90.10
19813;DHT22;10066;48.108;11.448;2023-06-24T10:42:42;22.80;89.40
19813;DHT22;10066;48.108;11.448;2023-06-24T10:45:19;22.70;89.30
19813;DHT22;10066;48.108;11.448;2023-06-24T10:47:48;22.60;89.90
19813;DHT22;10066;48.108;11.448;2023-06-24T10:50:19;22.50;90.00
19813;DHT22;10066;48.108;11.448;2023-06-24T10:52:47;22.50;89.70
19813;DHT22;10066;48.108;11.448;2023-06-24T10:55:14;22.50;89.40
19813;DHT22;10066;48.108;11.448;2023-06-24T10:57:43;22.40;89.80
19813;DHT22;10066;48.108;11.448;2023-06-24T11:00:12;22.40;89.70
19813;DHT22;10066;48.108;11.448;2023-06-24T11:02:39;22.30;89.70
19813;DHT22;10066;48.108;11.448;2023-06-24T11:05:07;22.30;90.20
19813;DHT22;10066;48.108;11.448;2023-06-24T11:07:37;22.40;90.40
19813;DHT22;10066;48.108;11.448;2023-06-24T11:10:06;22.60;90.60
19813;DHT22;10066;48.108;11.448;2023-06-24T11:12:34;22.70;90.70
19813;DHT22;10066;48.108;11.448;2023-06-24T11:15:04;22.90;90.50
19813;DHT22;10066;48.108;11.448;2023-06-24T11:17:32;23.20;89.90
19813;DHT22;10066;48.108;11.448;2023-06-24T11:20:00;23.40;88.20
19813;DHT22;10066;48.108;11.448;2023-06-24T11:22:27;23.60;86.70
19813;DHT22;10066;48.108;11.448;2023-06-24T11:24:56;23.70;86.10
19813;DHT22;10066;48.108;11.448;2023-06-24T11:27:27;23.80;83.10
19813;DHT22;10066;48.108;11.448;2023-06-24T11:29:55;23.80;82.30
19813;DHT22;10066;48.108;11.448;2023-06-24T11:32:35;23.80;83.30
19813;DHT22;10066;48.108;11.448;2023-06-24T11:35:02;23.90;84.20
19813;DHT22;10066;48.108;11.448;2023-06-24T11:37:31;24.10;84.90
19813;DHT22;10066;48.108;11.448;2023-06-24T11:42:33;24.00;81.20
19813;DHT22;10066;48.108;11.448;2023-06-24T11:45:03;23.60;81.00
19813;DHT22;10066;48.108;11.448;2023-06-24T11:47:32;23.40;81.70
19813;DHT22;10066;48.108;11.448;2023-06-24T11:50:00;23.20;82.70
19813;DHT22;10066;48.108;11.448;2023-06-24T11:52:41;23.10;83.10
19813;DHT22;10066;48.108;11.448;2023-06-24T11:55:16;23.00;83.50
19813;DHT22;10066;48.108;11.448;2023-06-24T11:57:50;23.00;84.40
19813;DHT22;10066;48.108;11.448;2023-06-24T12:00:21;23.10;84.80
19813;DHT22;10066;48.108;11.448;2023-06-24T12:02:58;23.10;83.10
19813;DHT22;10066;48.108;11.448;2023-06-24T12:05:28;23.10;82.70
19813;DHT22;10066;48.108;11.448;2023-06-24T12:07:56;23.20;82.40
19813;DHT22;10066;48.108;11.448;2023-06-24T12:10:25;23.30;82.10
19813;DHT22;10066;48.108;11.448;2023-06-24T12:12:52;23.40;82.50
19813;DHT22;10066;48.108;11.448;2023-06-24T12:15:19;23.50;81.70
19813;DHT22;10066;48.108;11.448;2023-06-24T12:17:46;23.60;82.30
19813;DHT22;10066;48.108;11.448;2023-06-24T12:20:13;23.70;82.10
19813;DHT22;10066;48.108;11.448;2023-06-24T12:22:43;23.90;81.50
19813;DHT22;10066;48.108;11.448;2023-06-24T12:25:10;23.90;81.00
19813;DHT22;10066;48.108;11.448;2023-06-24T12:27:39;23.80;80.80
19813;DHT22;10066;48.108;11.448;2023-06-24T12:30:07;23.60;80.70
19813;DHT22;10066;48.108;11.448;2023-06-24T12:32:35;23.40;81.40
19813;DHT22;10066;48.108;11.448;2023-06-24T12:35:02;23.20;81.20
19813;DHT22;10066;48.108;11.448;2023-06-24T12:37:30;22.90;81.60
19813;DHT22;10066;48.108;11.448;2023-06-24T12:39:58;22.80;81.90
19813;DHT22;10066;48.108;11.448;2023-06-24T12:42:25;22.80;81.70
19813;DHT22;10066;48.108;11.448;2023-06-24T12:44:54;22.70;80.90
19813;DHT22;10066;48.108;11.448;2023-06-24T12:47:21;22.90;81.20
19813;DHT22;10066;48.108;11.448;2023-06-24T12:49:49;22.90;82.20
19813;DHT22;10066;48.108;11.448;2023-06-24T12:52:16;23.10;82.90
19813;DHT22;10066;48.108;11.448;2023-06-24T12:54:43;23.10;81.40
19813;DHT22;10066;48.108;11.448;2023-06-24T12:57:10;23.30;81.80
19813;DHT22;10066;48.108;11.448;2023-06-24T12:59:37;23.40;81.60
19813;DHT22;10066;48.108;11.448;2023-06-24T13:02:06;23.60;80.60
19813;DHT22;10066;48.108;11.448;2023-06-24T13:04:32;23.70;79.50
19813;DHT22;10066;48.108;11.448;2023-06-24T13:06:59;23.90;78.80
19813;DHT22;10066;48.108;11.448;2023-06-24T13:09:26;24.00;78.30
19813;DHT22;10066;48.108;11.448;2023-06-24T13:11:53;24.20;79.00
19813;DHT22;10066;48.108;11.448;2023-06-24T13:14:20;24.30;76.90
19813;DHT22;10066;48.108;11.448;2023-06-24T13:16:47;24.50;77.40
19813;DHT22;10066;48.108;11.448;2023-06-24T13:19:15;24.60;76.90
19813;DHT22;10066;48.108;11.448;2023-06-24T13:21:43;24.80;77.50
19813;DHT22;10066;48.108;11.448;2023-06-24T13:24:09;24.90;76.90
19813;DHT22;10066;48.108;11.448;2023-06-24T13:26:38;25.00;76.20
19813;DHT22;10066;48.108;11.448;2023-06-24T13:29:05;24.90;75.70
19813;DHT22;10066;48.108;11.448;2023-06-24T13:31:33;24.90;75.10
19813;DHT22;10066;48.108;11.448;2023-06-24T13:33:59;24.70;74.50
19813;DHT22;10066;48.108;11.448;2023-06-24T13:36:33;24.50;74.40
19813;DHT22;10066;48.108;11.448;2023-06-24T13:39:01;24.20;74.40
19813;DHT22;10066;48.108;11.448;2023-06-24T13:41:28;24.00;75.60
19813;DHT22;10066;48.108;11.448;2023-06-24T13:43:58;23.80;76.10
19813;DHT22;10066;48.108;11.448;2023-06-24T13:46:25;23.60;75.30
19813;DHT22;10066;48.108;11.448;2023-06-24T13:48:52;23.60;75.30
19813;DHT22;10066;48.108;11.448;2023-06-24T13:51:19;23.60;75.70
19813;DHT22;10066;48.108;11.448;2023-06-24T13:53:48;23.70;76.90
19813;DHT22;10066;48.108;11.448;2023-06-24T13:56:16;23.90;77.10
19813;DHT22;10066;48.108;11.448;2023-06-24T13:58:43;24.00;75.30
19813;DHT22;10066;48.108;11.448;2023-06-24T14:01:10;24.00;73.60
19813;DHT22;10066;48.108;11.448;2023-06-24T14:03:37;24.00;73.10
19813;DHT22;10066;48.108;11.448;2023-06-24T14:06:04;24.10;70.90
19813;DHT22;10066;48.108;11.448;2023-06-24T14:08:32;24.10;69.90
19813;DHT22;10066;48.108;11.448;2023-06-24T14:11:01;24.10;69.70
19813;DHT22;10066;48.108;11.448;2023-06-24T14:13:28;24.10;70.60
19813;DHT22;10066;48.108;11.448;2023-06-24T14:15:56;24.20;70.60
19813;DHT22;10066;48.108;11.448;2023-06-24T14:18:25;24.30;69.00
19813;DHT22;10066;48.108;11.448;2023-06-24T14:20:52;24.40;69.80
19813;DHT22;10066;48.108;11.448;2023-06-24T14:23:19;24.50;69.90
19813;DHT22;10066;48.108;11.448;2023-06-24T14:25:46;24.50;69.60
19813;DHT22;10066;48.108;11.448;2023-06-24T14:28:14;24.50;70.30
19813;DHT22;10066;48.108;11.448;2023-06-24T14:30:41;24.50;69.90
19813;DHT22;10066;48.108;11.448;2023-06-24T14:33:08;24.30;70.10
19813;DHT22;10066;48.108;11.448;2023-06-24T14:35:35;24.20;70.20
19813;DHT22;10066;48.108;11.448;2023-06-24T14:38:02;24.20;71.00
19813;DHT22;10066;48.108;11.448;2023-06-24T14:40:29;24.30;71.70
19813;DHT22;10066;48.108;11.448;2023-06-24T14:42:56;24.40;71.40
19813;DHT22;10066;48.108;11.448;2023-06-24T14:45:24;24.40;71.60
19813;DHT22;10066;48.108;11.448;2023-06-24T14:47:51;24.50;71.40
19813;DHT22;10066;48.108;11.448;2023-06-24T14:50:18;24.40;70.90
19813;DHT22;10066;48.108;11.448;2023-06-24T14:52:45;24.30;70.90
19813;DHT22;10066;48.108;11.448;2023-06-24T14:55:12;24.30;71.50
19813;DHT22;10066;48.108;11.448;2023-06-24T14:57:39;24.30;70.70
19813;DHT22;10066;48.108;11.448;2023-06-24T15:00:07;24.20;70.40
19813;DHT22;10066;48.108;11.448;2023-06-24T15:02:36;24.20;70.60
19813;DHT22;10066;48.108;11.448;2023-06-24T15:05:03;24.30;71.00
19813;DHT22;10066;48.108;11.448;2023-06-24T15:07:30;24.20;70.50
19813;DHT22;10066;48.108;11.448;2023-06-24T15:09:57;24.00;70.70
19813;DHT22;10066;48.108;11.448;2023-06-24T15:12:24;23.90;70.60
19813;DHT22;10066;48.108;11.448;2023-06-24T15:14:50;23.80;71.10
19813;DHT22;10066;48.108;11.448;2023-06-24T15:17:18;23.70;71.20
19813;DHT22;10066;48.108;11.448;2023-06-24T15:19:47;23.70;72.20
19813;DHT22;10066;48.108;11.448;2023-06-24T15:22:14;23.70;71.30
19813;DHT22;10066;48.108;11.448;2023-06-24T15:24:41;23.70;70.90